Terminal Aerodrome Forecast
Issued by NWS Cleveland, OH

Home | Current Version | Previous Version | Text Only | Print | Product List | Glossary On
Versions: 1 2 3 4 5 6 7 8 9 10 11 12 13 14 15 16 17 18 19 20 21
806
FTUS41 KCLE 202016 AAB
TAFCAK
TAF AMD
KCAK 202016Z 2020/2118 22010KT P6SM -DZ OVC015
      TEMPO 2020/2022 3SM -DZ BR OVC008
     FM202200 22008KT 6SM BR OVC012
     FM210200 20005KT 4SM BR OVC012
      TEMPO 2110/2114 2SM BR OVC006
     FM211500 20008KT 6SM BR OVC020=

USA.gov is the U.S. government's official web portal to all federal, state and local government web resources and services.